Terminal Aerodrome Forecast
Issued by NWS

Home | Current Version | Previous Version | Text Only | Print | Product List | Glossary On
Versions: 1 2 3 4 5 6 7 8 9 10 11 12 13 14
000
FTAK31 PANC 200521
TAFAGK
TAF
PAGK 200521Z 2006/2106 17007KT P6SM SCT040 BKN060
     FM201200 16011KT P6SM VCSH SCT040 OVC070
     FM202100 16018G27KT P6SM SCT050 BKN080=

USA.gov is the U.S. government's official web portal to all federal, state and local government web resources and services.